Stanton, California
Current Conditions -  °F | °C
As of 11:58 PM on Friday 24 Oct 2014 (Local Time) from KSLI Reporting Station
Clear Clear  
Wind Chill: 61°   Ceiling: Unl
Heat Index: 61°   Visibility: 10mi
Dew Point: 60°   Wind: 3mph
Humidity: 97%   Direction: 20°NNE
Pressure: 30"   Gusts: NA
Location:  33.8°N, 117.99°W
Report Text: KSLI 250658Z AUTO 02003KT 10SM CLR 16/16 A3000 RMK AO2 SLP162 T01600155
Loading
Personal Weather Stations






























Interactive Weather Map
Tropical Storm Tracking
New forecast layout! Learn more

10-Day Weather Forecast

Advertisements
Track Severe Weather on mobile